Time;durP1;ratioP1;P1;durP2;ratioP2;P2;SDS_P1;SDS_P2;PMS_P1;PMS_P2;Temp;Humidity;BMP_temperature;BMP_pressure;BME280_temperature;BME280_humidity;BME280_pressure;Samples;Min_cycle;Max_cycle;Signal;HPM_P1;HPM_P2
2022/03/02 00:00:08;;;;;;;42.28;17.73;;;3.10;72.90;;;;;;4184487;28;20630;-72
2022/03/02 00:02:29;;;;;;;49.85;18.98;;;3.10;72.80;;;;;;4188908;28;20044;-73
2022/03/02 00:04:50;;;;;;;40.38;17.70;;;3.10;72.80;;;;;;4182959;28;20440;-73
2022/03/02 00:07:11;;;;;;;37.72;17.60;;;3.10;72.90;;;;;;4184751;28;20090;-73
2022/03/02 00:09:32;;;;;;;42.88;17.20;;;3.10;72.90;;;;;;4186401;28;20044;-73
2022/03/02 00:11:53;;;;;;;43.83;18.92;;;3.10;72.90;;;;;;4186670;28;20040;-73
2022/03/02 00:14:14;;;;;;;45.83;19.30;;;3.20;72.90;;;;;;4172606;28;20037;-73
2022/03/02 00:16:35;;;;;;;46.22;18.83;;;3.10;73.00;;;;;;4185228;28;20516;-72
2022/03/02 00:18:56;;;;;;;43.50;20.00;;;3.20;72.90;;;;;;4175556;28;20425;-72
2022/03/02 00:21:18;;;;;;;45.78;19.95;;;3.20;73.00;;;;;;4185420;28;20033;-72
2022/03/02 00:23:39;;;;;;;45.30;19.48;;;3.20;73.00;;;;;;4183072;28;20066;-72
2022/03/02 00:26:00;;;;;;;45.38;19.73;;;3.10;72.90;;;;;;4186053;28;22688;-73
2022/03/02 00:28:21;;;;;;;48.00;19.45;;;3.10;73.00;;;;;;4186414;28;20037;-72
2022/03/02 00:30:42;;;;;;;46.80;20.17;;;3.10;73.00;;;;;;4187566;28;21068;-73
2022/03/02 00:33:03;;;;;;;42.25;18.85;;;3.10;73.00;;;;;;4187227;28;20125;-73
2022/03/02 00:35:24;;;;;;;38.33;17.83;;;3.20;73.00;;;;;;4188464;28;20031;-73
2022/03/02 00:37:45;;;;;;;47.13;19.95;;;3.20;73.10;;;;;;4186077;28;20062;-73
2022/03/02 00:40:06;;;;;;;47.33;19.88;;;3.20;73.10;;;;;;4184400;28;20051;-73
2022/03/02 00:42:29;;;;;;;43.58;19.05;;;3.20;73.10;;;;;;4186669;28;20129;-73
2022/03/02 00:44:50;;;;;;;42.67;18.85;;;3.20;73.10;;;;;;4176095;28;20028;-73
2022/03/02 00:47:11;;;;;;;41.25;19.60;;;3.20;73.00;;;;;;4185143;28;20461;-73
2022/03/02 00:49:33;;;;;;;43.03;18.75;;;3.20;73.10;;;;;;4187125;28;20028;-73
2022/03/02 00:51:55;;;;;;;42.90;18.63;;;3.20;73.10;;;;;;4183855;28;20502;-73
2022/03/02 00:54:16;;;;;;;46.88;19.85;;;3.20;73.20;;;;;;4189494;28;20068;-72
2022/03/02 00:56:36;;;;;;;39.63;18.45;;;3.20;73.20;;;;;;4185247;28;20254;-73
2022/03/02 00:58:57;;;;;;;41.33;17.83;;;3.30;73.30;;;;;;4187146;28;20529;-73
2022/03/02 01:01:18;;;;;;;42.05;18.58;;;3.30;73.10;;;;;;4185309;28;20125;-72
2022/03/02 01:03:39;;;;;;;45.90;19.90;;;3.30;73.00;;;;;;4186320;28;20033;-73
2022/03/02 01:06:01;;;;;;;51.40;20.25;;;3.40;73.00;;;;;;4186768;28;20048;-73
2022/03/02 01:08:21;;;;;;;42.35;18.92;;;3.40;72.80;;;;;;4184878;28;20035;-73
2022/03/02 01:10:42;;;;;;;44.28;19.50;;;3.40;72.60;;;;;;4182892;28;20032;-73
2022/03/02 01:13:03;;;;;;;42.22;19.58;;;3.40;72.50;;;;;;4185606;28;20032;-74
2022/03/02 01:15:24;;;;;;;47.72;20.33;;;3.30;72.30;;;;;;4183791;28;20044;-72
2022/03/02 01:17:45;;;;;;;43.22;20.50;;;3.30;72.40;;;;;;4184814;28;20037;-73
2022/03/02 01:20:07;;;;;;;55.60;21.33;;;3.30;72.30;;;;;;4185307;28;20045;-73
2022/03/02 01:22:28;;;;;;;45.53;19.85;;;3.30;72.20;;;;;;4185398;28;20478;-73
2022/03/02 01:24:49;;;;;;;49.35;19.83;;;3.30;72.40;;;;;;4186487;28;20032;-73
2022/03/02 01:27:10;;;;;;;45.90;20.63;;;3.30;72.40;;;;;;4183427;28;20032;-73
2022/03/02 01:29:33;;;;;;;48.33;20.48;;;3.30;72.50;;;;;;4178489;28;20036;-73
2022/03/02 01:31:54;;;;;;;47.78;21.77;;;3.30;72.50;;;;;;4186148;28;20082;-73
2022/03/02 01:34:15;;;;;;;45.88;21.33;;;3.30;72.50;;;;;;4183200;28;20030;-73
2022/03/02 01:36:36;;;;;;;46.33;20.27;;;3.20;73.40;;;;;;4181676;28;20025;-73
2022/03/02 01:38:57;;;;;;;49.67;21.80;;;3.20;72.40;;;;;;4185914;28;20037;-73
2022/03/02 01:41:20;;;;;;;46.45;20.38;;;3.20;72.40;;;;;;4185901;28;20051;-73
2022/03/02 01:43:41;;;;;;;47.45;22.52;;;3.10;72.40;;;;;;4188268;28;20489;-73
2022/03/02 01:46:03;;;;;;;62.58;23.73;;;3.10;72.60;;;;;;4185965;28;20036;-73
2022/03/02 01:48:23;;;;;;;49.50;22.15;;;3.10;72.80;;;;;;4172197;28;20033;-73
2022/03/02 01:50:44;;;;;;;50.03;21.00;;;3.00;72.80;;;;;;4188131;28;20379;-72
2022/03/02 01:53:05;;;;;;;47.47;20.77;;;3.00;72.70;;;;;;4186814;28;20086;-73
2022/03/02 01:55:26;;;;;;;64.30;24.33;;;3.00;72.50;;;;;;4178024;28;20029;-73
2022/03/02 01:57:47;;;;;;;47.20;22.52;;;2.90;72.80;;;;;;4182773;28;20416;-72
2022/03/02 02:00:10;;;;;;;53.22;22.50;;;2.90;72.80;;;;;;4186961;28;20070;-73
2022/03/02 02:02:30;;;;;;;49.92;21.73;;;2.90;72.90;;;;;;4183927;28;20035;-73
2022/03/02 02:04:53;;;;;;;50.83;22.05;;;2.90;73.20;;;;;;4185206;28;20074;-73
2022/03/02 02:07:14;;;;;;;46.15;21.10;;;2.80;73.30;;;;;;4184507;28;20024;-73
2022/03/02 02:09:35;;;;;;;46.53;20.48;;;2.80;73.40;;;;;;4186477;28;20041;-74
2022/03/02 02:11:56;;;;;;;53.20;21.63;;;2.80;73.50;;;;;;4171251;28;20042;-73
2022/03/02 02:14:17;;;;;;;49.45;21.15;;;2.80;73.50;;;;;;4188310;28;20043;-73
2022/03/02 02:16:38;;;;;;;53.88;21.20;;;2.80;73.50;;;;;;4175781;28;20098;-73
2022/03/02 02:18:59;;;;;;;47.40;21.73;;;2.80;73.60;;;;;;4171258;28;20040;-73
2022/03/02 02:21:20;;;;;;;51.35;21.83;;;2.80;73.50;;;;;;4185420;28;20472;-73
2022/03/02 02:23:41;;;;;;;51.28;21.70;;;2.80;73.40;;;;;;4187334;28;20409;-73
2022/03/02 02:26:02;;;;;;;53.08;23.02;;;2.80;73.60;;;;;;4184753;28;20079;-74
2022/03/02 02:28:24;;;;;;;51.75;21.60;;;2.80;73.40;;;;;;4180227;28;20045;-73
2022/03/02 02:30:45;;;;;;;52.70;21.90;;;2.70;73.40;;;;;;4169603;28;20045;-73
2022/03/02 02:33:06;;;;;;;48.83;20.50;;;2.70;73.40;;;;;;4180296;28;20122;-73
2022/03/02 02:35:27;;;;;;;54.90;22.88;;;2.70;73.30;;;;;;4183070;28;20036;-73
2022/03/02 02:37:48;;;;;;;50.72;21.30;;;2.70;73.30;;;;;;4183941;28;20217;-73
2022/03/02 02:40:11;;;;;;;49.53;21.17;;;2.70;73.50;;;;;;4172631;28;20060;-73
2022/03/02 02:42:32;;;;;;;45.67;21.17;;;2.60;73.60;;;;;;4188568;28;20025;-73
2022/03/02 02:44:53;;;;;;;41.85;17.98;;;2.60;73.70;;;;;;4171291;28;20827;-73
2022/03/02 02:47:14;;;;;;;46.35;19.33;;;2.60;73.60;;;;;;4168178;28;20033;-73
2022/03/02 02:49:35;;;;;;;45.85;20.77;;;2.60;73.60;;;;;;4167789;28;21202;-73
2022/03/02 02:51:57;;;;;;;44.53;19.77;;;2.60;73.70;;;;;;4185756;28;21909;-73
2022/03/02 02:54:18;;;;;;;49.47;21.45;;;2.60;73.70;;;;;;4187675;28;20594;-72
2022/03/02 02:56:38;;;;;;;48.20;22.02;;;2.70;73.90;;;;;;4183261;28;20029;-73
2022/03/02 02:58:59;;;;;;;48.08;20.75;;;2.70;74.10;;;;;;4183565;28;20037;-73
2022/03/02 03:01:21;;;;;;;50.70;21.52;;;2.70;74.10;;;;;;4184097;28;20036;-73
2022/03/02 03:03:42;;;;;;;50.83;21.33;;;2.80;74.20;;;;;;4184721;28;20116;-73
2022/03/02 03:06:04;;;;;;;44.70;19.90;;;2.80;74.20;;;;;;4171259;28;20409;-72
2022/03/02 03:08:24;;;;;;;45.75;19.17;;;2.90;74.30;;;;;;4184057;28;20029;-73
2022/03/02 03:10:47;;;;;;;48.92;20.45;;;2.90;74.20;;;;;;4169087;28;20025;-73
2022/03/02 03:13:08;;;;;;;50.55;21.50;;;2.90;74.30;;;;;;4185691;28;20049;-73
2022/03/02 03:15:29;;;;;;;46.78;20.80;;;2.90;74.40;;;;;;4167949;28;20037;-73
2022/03/02 03:17:50;;;;;;;46.35;20.70;;;3.00;74.50;;;;;;4168068;28;20121;-73
2022/03/02 03:20:12;;;;;;;48.67;21.27;;;3.00;74.40;;;;;;4185302;28;20509;-73
2022/03/02 03:22:33;;;;;;;49.55;20.58;;;3.10;74.50;;;;;;4184555;28;20029;-73
2022/03/02 03:24:54;;;;;;;51.03;22.23;;;3.10;74.50;;;;;;4180565;28;20029;-73
2022/03/02 03:27:15;;;;;;;53.88;22.88;;;3.10;74.50;;;;;;4172399;28;20106;-73
2022/03/02 03:29:36;;;;;;;55.67;23.17;;;3.10;74.40;;;;;;4184601;28;20040;-73
2022/03/02 03:31:57;;;;;;;53.90;22.48;;;3.10;74.20;;;;;;4182834;28;20036;-73
2022/03/02 03:34:18;;;;;;;62.95;23.08;;;3.10;74.20;;;;;;4184275;28;20032;-72
2022/03/02 03:36:39;;;;;;;57.88;22.77;;;3.10;74.40;;;;;;4180685;28;21545;-72
2022/03/02 03:38:59;;;;;;;59.22;23.35;;;3.00;74.40;;;;;;4169610;28;20033;-72
2022/03/02 03:41:20;;;;;;;54.85;23.50;;;3.00;74.50;;;;;;4157004;28;20041;-73
2022/03/02 03:43:43;;;;;;;59.13;22.83;;;3.00;74.60;;;;;;4180398;28;20036;-74
2022/03/02 03:46:04;;;;;;;57.22;22.92;;;3.00;74.80;;;;;;4180832;28;20041;-73
2022/03/02 03:48:24;;;;;;;59.75;22.13;;;3.00;74.70;;;;;;4169774;28;20490;-73
2022/03/02 03:50:45;;;;;;;54.05;21.92;;;3.00;74.70;;;;;;4178881;28;20477;-73
2022/03/02 03:53:06;;;;;;;52.42;20.25;;;2.90;74.80;;;;;;4179907;28;20103;-73
2022/03/02 03:55:27;;;;;;;46.28;19.27;;;2.90;74.90;;;;;;4182539;28;20128;-73
2022/03/02 03:57:48;;;;;;;53.85;18.63;;;2.90;75.20;;;;;;4179947;28;20666;-73
2022/03/02 04:00:11;;;;;;;49.03;16.17;;;2.90;75.40;;;;;;4168316;28;20409;-73
2022/03/02 04:02:32;;;;;;;43.00;15.53;;;2.90;75.70;;;;;;4181453;28;20033;-73
2022/03/02 04:04:53;;;;;;;38.97;15.38;;;2.90;75.80;;;;;;4185709;28;20385;-72
2022/03/02 04:07:14;;;;;;;38.50;14.68;;;2.90;75.90;;;;;;4184021;28;20053;-73
2022/03/02 04:09:35;;;;;;;46.90;16.13;;;2.90;76.10;;;;;;4183513;28;20718;-72
2022/03/02 04:11:57;;;;;;;38.33;13.52;;;2.90;76.60;;;;;;4182202;28;20041;-73
2022/03/02 04:14:18;;;;;;;40.33;14.85;;;3.00;76.20;;;;;;4182777;28;20040;-73
2022/03/02 04:16:39;;;;;;;40.75;15.45;;;3.00;77.10;;;;;;4181515;28;20783;-72
2022/03/02 04:19:00;;;;;;;37.13;15.18;;;3.00;76.30;;;;;;4170042;28;20029;-73
2022/03/02 04:21:21;;;;;;;37.30;14.07;;;3.00;76.30;;;;;;4180774;28;20116;-73
2022/03/02 04:23:42;;;;;;;42.85;14.60;;;3.00;76.40;;;;;;4182222;28;20489;-73
2022/03/02 04:26:03;;;;;;;37.22;15.20;;;3.00;76.30;;;;;;4187291;28;20102;-73
2022/03/02 04:28:24;;;;;;;41.25;16.38;;;3.00;76.40;;;;;;4182739;28;20111;-72
2022/03/02 04:30:45;;;;;;;37.78;14.45;;;3.00;76.40;;;;;;4186125;28;20045;-73
2022/03/02 04:33:06;;;;;;;42.17;15.27;;;3.00;76.40;;;;;;4173079;28;20039;-73
2022/03/02 04:35:27;;;;;;;36.42;14.57;;;3.00;76.40;;;;;;4184436;28;20493;-73
2022/03/02 04:37:48;;;;;;;46.97;14.73;;;2.90;76.40;;;;;;4187378;28;20036;-73
2022/03/02 04:40:10;;;;;;;56.92;15.25;;;2.90;76.40;;;;;;4182337;28;20138;-73
2022/03/02 04:42:31;;;;;;;64.47;14.80;;;2.90;76.70;;;;;;4183735;28;20033;-72
2022/03/02 04:44:52;;;;;;;50.35;13.40;;;2.90;76.70;;;;;;4183146;28;20045;-73
2022/03/02 04:47:13;;;;;;;61.13;14.68;;;2.90;76.90;;;;;;4187857;28;20036;-73
2022/03/02 04:49:34;;;;;;;50.80;16.15;;;2.80;76.80;;;;;;4187026;28;20025;-73
2022/03/02 04:51:55;;;;;;;53.33;14.73;;;2.80;76.90;;;;;;4188067;28;20409;-73
2022/03/02 04:56:56;;;;;;;83.78;16.63;;;2.80;77.00;;;;;;4187780;28;20444;-72
2022/03/02 04:59:17;;;;;;;72.82;18.00;;;2.80;77.00;;;;;;4185510;28;20052;-72
2022/03/02 05:01:38;;;;;;;54.83;18.80;;;2.70;77.00;;;;;;4184193;28;20075;-72
2022/03/02 05:03:59;;;;;;;57.97;18.95;;;2.70;77.10;;;;;;4182101;28;20481;-72
2022/03/02 05:06:20;;;;;;;63.53;19.48;;;2.70;77.20;;;;;;4184335;28;20056;-73
2022/03/02 05:08:41;;;;;;;63.08;18.85;;;2.70;77.30;;;;;;4173726;28;20041;-73
2022/03/02 05:11:02;;;;;;;54.50;18.10;;;2.60;77.30;;;;;;4174179;28;20381;-72
2022/03/02 05:13:22;;;;;;;72.45;18.02;;;2.60;77.40;;;;;;4189464;28;20032;-72
2022/03/02 05:15:43;;;;;;;58.90;19.73;;;2.60;77.50;;;;;;4188826;28;20033;-72
2022/03/02 05:18:04;;;;;;;57.63;18.90;;;2.60;77.70;;;;;;4186522;28;20047;-72
2022/03/02 05:20:25;;;;;;;54.17;18.83;;;2.60;77.70;;;;;;4187940;28;20059;-72
2022/03/02 05:22:46;;;;;;;64.07;19.25;;;2.60;77.70;;;;;;4187405;28;20390;-72
2022/03/02 05:25:08;;;;;;;60.15;18.65;;;2.60;77.70;;;;;;4189624;28;20062;-73
2022/03/02 05:27:29;;;;;;;52.10;17.92;;;2.60;77.70;;;;;;4183908;28;20039;-72
2022/03/02 05:29:50;;;;;;;50.03;17.75;;;2.60;77.80;;;;;;4179484;28;20127;-72
2022/03/02 05:32:11;;;;;;;54.53;16.95;;;2.50;77.80;;;;;;4187283;28;20027;-72
2022/03/02 05:34:32;;;;;;;57.40;18.30;;;2.60;77.90;;;;;;4186139;28;20119;-73
2022/03/02 05:36:53;;;;;;;55.72;17.08;;;2.50;77.80;;;;;;4186593;28;21488;-72
2022/03/02 05:39:14;;;;;;;48.17;17.60;;;2.50;78.00;;;;;;4185182;28;20114;-72
2022/03/02 05:41:35;;;;;;;54.03;16.88;;;2.50;78.10;;;;;;4185865;28;20029;-72
2022/03/02 05:43:55;;;;;;;50.53;16.55;;;2.50;78.20;;;;;;4172716;28;20441;-72
2022/03/02 05:46:16;;;;;;;46.00;16.27;;;2.50;78.40;;;;;;4186755;28;20043;-72
2022/03/02 05:48:37;;;;;;;55.25;18.13;;;2.50;78.60;;;;;;4191919;28;20040;-73
2022/03/02 05:50:58;;;;;;;54.45;17.80;;;2.50;78.80;;;;;;4186278;28;20033;-72
2022/03/02 05:53:19;;;;;;;51.78;18.10;;;2.50;78.70;;;;;;4191600;28;20024;-72
2022/03/02 05:55:40;;;;;;;47.38;17.55;;;2.50;78.70;;;;;;4180067;28;20405;-72
2022/03/02 05:58:01;;;;;;;45.20;15.48;;;2.60;78.80;;;;;;4186424;28;20040;-72
2022/03/02 06:00:22;;;;;;;56.35;18.50;;;2.50;78.70;;;;;;4189714;28;20048;-73
2022/03/02 06:02:43;;;;;;;47.42;16.75;;;2.60;78.70;;;;;;4187733;28;20097;-72
2022/03/02 06:05:04;;;;;;;48.58;16.02;;;2.60;78.60;;;;;;4186025;28;20059;-73
2022/03/02 06:07:25;;;;;;;41.72;15.95;;;2.50;78.50;;;;;;4187158;28;20036;-73
2022/03/02 06:09:46;;;;;;;50.45;16.30;;;2.50;78.60;;;;;;4189834;28;20517;-72
2022/03/02 06:12:08;;;;;;;45.15;15.50;;;2.50;78.60;;;;;;4175362;28;20079;-72
2022/03/02 06:14:29;;;;;;;56.83;17.13;;;2.60;78.80;;;;;;4186411;28;20379;-73
2022/03/02 06:16:51;;;;;;;47.60;16.65;;;2.60;78.90;;;;;;4185858;28;20729;-73
2022/03/02 06:19:12;;;;;;;44.80;16.33;;;2.60;79.00;;;;;;4184573;28;20075;-72
2022/03/02 06:21:34;;;;;;;46.85;17.10;;;2.50;79.00;;;;;;4187864;28;20040;-73
2022/03/02 06:23:55;;;;;;;43.72;15.30;;;2.60;79.00;;;;;;4188596;28;20087;-73
2022/03/02 06:26:18;;;;;;;50.97;16.83;;;2.50;79.10;;;;;;4188734;28;20521;-72
2022/03/02 06:28:38;;;;;;;42.78;16.63;;;2.60;79.20;;;;;;4186467;28;20035;-72
2022/03/02 06:30:59;;;;;;;45.65;15.93;;;2.60;79.20;;;;;;4189957;28;20493;-72
2022/03/02 06:33:21;;;;;;;46.92;16.60;;;2.60;79.20;;;;;;4173688;28;20111;-72
2022/03/02 06:35:42;;;;;;;45.60;15.43;;;2.60;79.20;;;;;;4189959;28;20103;-73
2022/03/02 06:38:03;;;;;;;49.80;16.15;;;2.60;79.20;;;;;;4187233;28;20037;-73
2022/03/02 06:40:24;;;;;;;49.25;15.43;;;2.70;79.40;;;;;;4186426;28;20119;-73
2022/03/02 06:42:59;;;;;;;48.70;15.73;;;2.60;79.20;;;;;;4184182;28;20034;-72
2022/03/02 06:45:26;;;;;;;41.85;15.30;;;2.70;79.30;;;;;;4189751;28;20039;-73
2022/03/02 06:47:57;;;;;;;44.17;14.75;;;2.70;79.30;;;;;;4186295;28;20037;-72
2022/03/02 06:50:20;;;;;;;42.72;15.63;;;2.70;79.20;;;;;;4173987;28;20048;-73
2022/03/02 06:52:43;;;;;;;42.35;15.32;;;2.70;79.10;;;;;;4183601;28;20737;-73
2022/03/02 06:55:09;;;;;;;43.73;15.87;;;2.70;79.10;;;;;;4174723;28;20444;-73
2022/03/02 06:57:30;;;;;;;45.83;14.77;;;2.70;78.90;;;;;;4172816;28;20298;-72
2022/03/02 06:59:54;;;;;;;41.70;15.38;;;2.70;78.80;;;;;;4186832;28;20036;-73
2022/03/02 07:02:15;;;;;;;;;;;2.70;78.80;;;;;;4176022;28;20444;-72
2022/03/02 07:04:42;;;;;;;38.08;12.52;;;2.70;79.00;;;;;;4187175;28;20620;-73
2022/03/02 07:07:03;;;;;;;35.33;13.88;;;2.70;78.70;;;;;;4184021;28;20036;-73
2022/03/02 07:09:24;;;;;;;39.90;13.60;;;2.70;78.70;;;;;;4184180;28;20044;-73
2022/03/02 07:11:47;;;;;;;44.13;13.27;;;2.70;78.70;;;;;;4183620;28;20051;-73
2022/03/02 07:14:10;;;;;;;40.30;13.60;;;2.70;78.60;;;;;;4175017;28;20048;-73
2022/03/02 07:16:31;;;;;;;42.08;12.85;;;2.80;78.70;;;;;;4188018;28;20040;-73
2022/03/02 07:18:52;;;;;;;38.58;12.30;;;2.80;78.70;;;;;;4186915;28;20028;-72
2022/03/02 07:21:15;;;;;;;38.67;14.85;;;2.80;78.70;;;;;;4189969;28;20036;-72
2022/03/02 07:23:36;;;;;;;40.38;14.82;;;2.80;78.70;;;;;;4186074;28;20374;-73
2022/03/02 07:25:58;;;;;;;46.50;15.68;;;2.80;78.60;;;;;;4171689;28;20461;-73
2022/03/02 07:28:20;;;;;;;43.13;14.82;;;2.80;78.40;;;;;;4169665;28;20084;-72
2022/03/02 07:30:42;;;;;;;41.30;14.23;;;2.70;78.40;;;;;;4172270;28;20037;-72
2022/03/02 07:33:03;;;;;;;36.20;13.65;;;2.70;78.40;;;;;;4175629;28;20029;-73
2022/03/02 07:35:25;;;;;;;42.72;15.45;;;2.70;78.50;;;;;;4184601;28;20032;-73
2022/03/02 07:37:46;;;;;;;53.10;18.40;;;2.70;78.50;;;;;;4182849;28;20029;-73
2022/03/02 07:40:07;;;;;;;55.70;19.83;;;2.70;78.20;;;;;;4189788;28;20040;-72
2022/03/02 07:42:28;;;;;;;45.42;16.65;;;2.70;77.90;;;;;;4188181;28;20033;-73
2022/03/02 07:44:50;;;;;;;44.90;17.52;;;2.70;78.00;;;;;;4187028;28;20119;-73
2022/03/02 07:47:10;;;;;;;45.10;15.07;;;2.60;78.00;;;;;;4182389;28;20112;-72
2022/03/02 07:49:32;;;;;;;35.85;14.48;;;2.60;78.10;;;;;;4174948;28;20110;-73
2022/03/02 07:51:53;;;;;;;37.88;13.90;;;2.60;78.20;;;;;;4184595;28;20504;-73
2022/03/02 07:54:14;;;;;;;36.88;13.80;;;2.60;78.30;;;;;;4171121;28;20064;-72
2022/03/02 07:56:35;;;;;;;40.80;13.73;;;2.70;78.50;;;;;;4170809;28;20070;-73
2022/03/02 07:59:06;;;;;;;37.25;14.85;;;2.60;78.60;;;;;;4181295;28;20102;-72
2022/03/02 08:01:27;;;;;;;46.58;14.55;;;2.60;78.50;;;;;;4188927;28;20573;-72
2022/03/02 08:03:48;;;;;;;42.47;13.32;;;2.60;78.40;;;;;;4188248;28;20044;-73
2022/03/02 08:06:09;;;;;;;45.20;15.30;;;2.60;78.40;;;;;;4189374;28;20528;-72
2022/03/02 08:08:30;;;;;;;36.38;13.35;;;2.50;78.40;;;;;;4174985;28;20041;-72
2022/03/02 08:10:52;;;;;;;40.75;13.07;;;2.60;78.70;;;;;;4185921;28;20047;-73
2022/03/02 08:13:13;;;;;;;38.30;13.80;;;2.60;79.00;;;;;;4169901;28;20044;-72
2022/03/02 08:15:34;;;;;;;42.97;14.55;;;2.60;79.20;;;;;;4185347;28;20071;-72
2022/03/02 08:17:55;;;;;;;44.55;14.30;;;2.70;79.30;;;;;;4187600;28;20051;-73
2022/03/02 08:20:16;;;;;;;32.92;12.32;;;2.70;79.30;;;;;;4188354;28;20131;-72
2022/03/02 08:22:37;;;;;;;45.22;14.10;;;2.80;79.30;;;;;;4190159;28;20054;-72
2022/03/02 08:25:10;;;;;;;41.47;12.93;;;2.80;79.20;;;;;;4177396;28;20498;-73
2022/03/02 08:27:31;;;;;;;46.27;15.03;;;2.80;79.10;;;;;;4177469;28;20087;-73
2022/03/02 08:29:56;;;;;;;51.20;14.88;;;2.90;79.10;;;;;;4188828;28;20275;-72
2022/03/02 08:32:17;;;;;;;35.47;12.88;;;2.90;78.90;;;;;;4176294;28;20064;-72
2022/03/02 08:34:38;;;;;;;38.25;13.73;;;2.90;78.70;;;;;;4177194;28;20041;-72
2022/03/02 08:37:02;;;;;;;42.55;13.80;;;2.90;78.50;;;;;;4190815;28;20032;-73
2022/03/02 08:39:23;;;;;;;36.80;12.60;;;3.00;78.50;;;;;;4186170;28;20501;-73
2022/03/02 08:41:45;;;;;;;50.53;15.50;;;3.00;78.60;;;;;;4188232;28;20031;-73
2022/03/02 08:44:07;;;;;;;41.83;14.48;;;3.00;78.50;;;;;;4188342;28;20036;-73
2022/03/02 08:46:29;;;;;;;42.58;14.43;;;3.00;78.30;;;;;;4186442;28;20024;-73
2022/03/02 08:48:50;;;;;;;47.58;14.25;;;3.00;78.30;;;;;;4189914;28;20032;-73
2022/03/02 08:51:11;;;;;;;46.47;15.23;;;3.00;78.20;;;;;;4189227;28;20041;-72
2022/03/02 08:53:32;;;;;;;44.97;14.85;;;3.00;78.20;;;;;;4168451;28;20403;-73
2022/03/02 08:55:53;;;;;;;44.85;15.10;;;3.00;78.30;;;;;;4186193;28;20035;-72
2022/03/02 08:58:14;;;;;;;42.88;15.18;;;3.00;78.20;;;;;;4186070;28;20028;-73
2022/03/02 09:00:36;;;;;;;39.95;13.35;;;3.00;78.30;;;;;;4188340;28;20064;-73
2022/03/02 09:02:57;;;;;;;43.60;14.25;;;3.00;78.50;;;;;;4187010;28;20032;-72
2022/03/02 09:05:17;;;;;;;43.90;16.40;;;3.10;78.60;;;;;;4171111;28;20029;-73
2022/03/02 09:07:38;;;;;;;48.67;15.20;;;3.10;78.60;;;;;;4177297;28;20798;-72
2022/03/02 09:09:59;;;;;;;50.38;16.15;;;3.10;78.50;;;;;;4190244;28;20087;-73
2022/03/02 09:12:20;;;;;;;45.72;15.02;;;3.10;78.50;;;;;;4187539;28;20040;-73
2022/03/02 09:14:42;;;;;;;41.80;14.10;;;3.20;79.20;;;;;;4189398;28;20040;-72
2022/03/02 09:17:03;;;;;;;37.38;13.15;;;3.20;78.40;;;;;;4184963;28;20029;-73
2022/03/02 09:19:24;;;;;;;35.85;12.07;;;3.20;78.20;;;;;;4185991;28;20043;-73
2022/03/02 09:21:45;;;;;;;45.78;13.27;;;3.20;78.00;;;;;;4187546;28;20354;-72
2022/03/02 09:24:06;;;;;;;35.22;12.25;;;3.20;78.00;;;;;;4186709;28;20048;-72
2022/03/02 09:26:27;;;;;;;30.75;11.55;;;3.30;78.00;;;;;;4174797;28;20040;-73
2022/03/02 09:28:50;;;;;;;32.92;10.95;;;3.30;78.00;;;;;;4185662;28;20033;-72
2022/03/02 09:31:14;;;;;;;33.67;12.85;;;3.30;78.00;;;;;;4175116;28;20644;-73
2022/03/02 09:33:35;;;;;;;35.13;12.15;;;3.30;78.00;;;;;;4186104;28;20504;-72
2022/03/02 09:35:56;;;;;;;32.42;11.98;;;3.40;77.70;;;;;;4170894;28;20033;-72
2022/03/02 09:38:18;;;;;;;27.67;10.60;;;3.40;77.50;;;;;;4187824;28;20045;-73
2022/03/02 09:40:43;;;;;;;37.00;11.50;;;3.40;77.50;;;;;;4184773;28;20040;-72
2022/03/02 09:43:07;;;;;;;29.48;11.27;;;3.40;77.50;;;;;;4177845;28;20056;-72
2022/03/02 09:45:30;;;;;;;33.10;10.45;;;3.50;77.60;;;;;;4187418;28;20036;-73
2022/03/02 09:47:56;;;;;;;32.25;11.23;;;3.50;77.60;;;;;;4189503;28;20060;-73
2022/03/02 09:50:17;;;;;;;35.70;11.48;;;3.60;77.70;;;;;;4185711;28;20032;-72
2022/03/02 09:52:40;;;;;;;32.85;11.45;;;3.70;77.50;;;;;;4187647;28;20036;-72
2022/03/02 09:55:01;;;;;;;33.55;11.23;;;3.70;77.00;;;;;;4186840;28;20104;-72
2022/03/02 09:57:22;;;;;;;28.95;10.38;;;3.70;76.50;;;;;;4188083;28;20028;-72
2022/03/02 09:59:43;;;;;;;34.90;10.40;;;3.70;76.30;;;;;;4187076;28;20049;-72
2022/03/02 10:02:06;;;;;;;34.03;12.18;;;3.80;76.40;;;;;;4174086;28;20036;-72
2022/03/02 10:04:28;;;;;;;38.55;11.45;;;3.80;76.00;;;;;;4187623;28;20443;-72
2022/03/02 10:07:26;;;;;;;33.90;11.57;;;3.80;75.50;;;;;;4189412;28;20033;-73
2022/03/02 10:09:40;;;;;;;37.08;12.25;;;3.80;75.10;;;;;;4188737;28;20029;-72
2022/03/02 10:12:01;;;;;;;30.70;12.00;;;3.80;74.90;;;;;;4187115;28;20068;-72
2022/03/02 10:14:21;;;;;;;33.05;11.10;;;3.80;74.40;;;;;;4172713;28;20037;-72
2022/03/02 10:16:44;;;;;;;35.78;11.48;;;3.80;74.00;;;;;;4172483;28;20068;-72
2022/03/02 10:19:06;;;;;;;29.35;10.95;;;3.80;74.70;;;;;;4187149;28;20489;-73
2022/03/02 10:21:40;;;;;;;30.52;10.80;;;3.80;74.10;;;;;;4185233;28;20040;-73
2022/03/02 10:24:02;;;;;;;32.95;13.68;;;3.80;74.00;;;;;;4191236;28;20044;-73
2022/03/02 10:26:24;;;;;;;34.92;13.02;;;3.90;74.10;;;;;;4187276;28;20567;-73
2022/03/02 10:29:03;;;;;;;39.30;11.73;;;3.90;74.00;;;;;;4189763;28;20036;-73
2022/03/02 10:31:34;;;;;;;32.58;11.27;;;4.00;73.90;;;;;;4186461;28;20375;-73
2022/03/02 10:33:57;;;;;;;31.85;10.98;;;4.00;73.70;;;;;;4185231;28;20570;-73
2022/03/02 10:36:18;;;;;;;33.50;11.20;;;4.00;73.20;;;;;;4185903;28;20133;-73
2022/03/02 10:38:38;;;;;;;29.52;11.13;;;4.00;72.90;;;;;;4186334;28;20075;-73
2022/03/02 10:41:00;;;;;;;34.85;11.98;;;4.00;72.70;;;;;;4185667;28;20045;-72
2022/03/02 10:43:21;;;;;;;35.08;12.27;;;4.00;72.60;;;;;;4186119;28;20028;-72
2022/03/02 10:45:44;;;;;;;30.65;10.38;;;4.00;72.50;;;;;;4188914;28;20481;-72
2022/03/02 10:48:16;;;;;;;32.58;10.52;;;4.00;72.00;;;;;;4190110;28;20032;-72
2022/03/02 10:50:39;;;;;;;36.00;11.82;;;3.90;71.90;;;;;;4189233;28;20029;-73
2022/03/02 10:53:01;;;;;;;27.83;10.27;;;3.90;72.10;;;;;;4185508;28;20149;-72
2022/03/02 10:55:22;;;;;;;25.42;10.77;;;4.00;72.10;;;;;;4170926;28;20598;-73
2022/03/02 10:57:45;;;;;;;29.67;10.88;;;3.90;71.90;;;;;;4184972;28;20029;-72
2022/03/02 11:00:13;;;;;;;36.35;11.07;;;3.90;71.80;;;;;;4181343;28;20052;-72
2022/03/02 11:02:33;;;;;;;26.13;10.50;;;3.90;71.60;;;;;;4188012;28;20039;-72
2022/03/02 11:04:55;;;;;;;24.42;10.85;;;3.90;71.60;;;;;;4169832;28;20025;-72
2022/03/02 11:07:16;;;;;;;27.30;10.48;;;3.90;71.60;;;;;;4172340;28;20490;-73
2022/03/02 11:09:37;;;;;;;32.25;12.07;;;3.90;71.70;;;;;;4180419;28;20032;-72
2022/03/02 11:11:58;;;;;;;25.40;10.50;;;3.90;71.90;;;;;;4181792;28;20040;-73
2022/03/02 11:14:19;;;;;;;35.08;11.48;;;3.90;71.80;;;;;;4185190;28;20068;-72
2022/03/02 11:16:40;;;;;;;29.83;10.90;;;3.90;71.60;;;;;;4184931;28;20327;-72
2022/03/02 11:19:14;;;;;;;32.65;10.93;;;3.90;71.50;;;;;;4170386;28;20037;-73
2022/03/02 11:21:36;;;;;;;34.10;11.20;;;3.90;71.50;;;;;;4180517;28;20127;-72
2022/03/02 11:24:01;;;;;;;25.90;10.38;;;3.90;71.50;;;;;;4169675;28;20032;-72
2022/03/02 11:26:27;;;;;;;26.08;10.60;;;3.90;71.50;;;;;;4175941;28;20451;-72
2022/03/02 11:29:00;;;;;;;30.83;11.20;;;3.90;71.60;;;;;;4178691;28;20532;-73
2022/03/02 11:31:27;;;;;;;33.75;11.10;;;3.90;71.50;;;;;;4183963;28;20128;-72
2022/03/02 11:33:48;;;;;;;25.00;9.93;;;3.90;71.30;;;;;;4182714;28;20490;-72
2022/03/02 11:36:10;;;;;;;30.63;10.35;;;3.90;71.20;;;;;;4183913;28;20048;-73
2022/03/02 11:38:32;;;;;;;26.17;11.13;;;4.00;71.50;;;;;;4183890;28;20249;-72
2022/03/02 11:40:53;;;;;;;30.45;10.57;;;3.90;72.00;;;;;;4181588;28;20131;-72
2022/03/02 11:43:21;;;;;;;28.33;11.00;;;3.90;71.30;;;;;;4182424;28;20025;-72
2022/03/02 11:45:42;;;;;;;28.08;11.02;;;4.00;71.40;;;;;;4168233;28;20064;-72
2022/03/02 11:48:09;;;;;;;28.92;9.98;;;4.00;71.40;;;;;;4178109;28;20108;-72
2022/03/02 11:50:30;;;;;;;26.75;10.38;;;4.00;71.30;;;;;;4182363;28;20036;-72
2022/03/02 11:52:51;;;;;;;24.40;10.45;;;4.00;72.10;;;;;;4184695;28;20037;-72
2022/03/02 11:55:16;;;;;;;25.27;9.88;;;4.00;71.30;;;;;;4183088;28;20032;-72
2022/03/02 11:57:47;;;;;;;27.05;10.15;;;4.00;71.30;;;;;;4169602;28;20415;-72
2022/03/02 12:00:21;;;;;;;28.73;10.35;;;4.10;71.40;;;;;;4180480;28;20045;-72
2022/03/02 12:03:02;;;;;;;27.23;10.07;;;4.10;71.50;;;;;;4182885;28;20037;-72
2022/03/02 12:05:28;;;;;;;25.75;10.38;;;4.20;71.50;;;;;;4185316;28;20035;-72
2022/03/02 12:07:51;;;;;;;27.55;9.13;;;4.30;71.70;;;;;;4166002;28;20036;-72
2022/03/02 12:10:16;;;;;;;23.30;10.52;;;4.30;71.70;;;;;;4181858;28;20064;-72
2022/03/02 12:12:40;;;;;;;26.83;9.60;;;4.40;71.70;;;;;;4183795;28;20028;-72